Aérodrome :
LOGIN :

S'inscrire | Disclaimer

   EN    FR    IT 

 










Légende :    VFR   VFR Marginal   IFR   IFR Intensif   IFR Très Intensif
Visi : 
Plafond : 
>= 8 km
>= 3000ft
5 à 8 km
1000 à 3000 ft
1500m à 5 km
500 à 1000 ft
800 à 1500m
200 à 500 ft
< 800m
< 200 ft
Symboles :   Orages  Brouillard  Fortes neiges  Fortes précipitations  Vent > 20 kt
SIGMETs :   Divers  Orages  Givrage  Turbulence  Onde Orograph.  Cendres Volcan.







- Altitude de l'aérodrome : 3006 ft
- Code IATA : LEN


LELN - Leon

DERNIER METAR :
  • 132000Z 34003KT CAVOK 03/03 Q1026

METARs EXPIRÉS :
  • 131930Z 34003KT 300V050 CAVOK 05/05 Q1026
  • 131900Z 29004KT CAVOK 04/04 Q1026
  • 131830Z 28004KT CAVOK 03/03 Q1026
  • 131800Z 24003KT CAVOK 04/04 Q1025
  • 131730Z 24002KT CAVOK 06/04 Q1025

TAF TAF LELN
Valide du 13 à 18h jusqu'au 14 à 03h UTC


131700Z 1318/1403 VRB04KT 9999 FEW035
PROB30
TEMPO 1321/1403 0400 FG BKN004
Pas de NOTAMs connus pour ce terrain.



MET'MAP, la Météo Aéronautique d'un coup d'oeil ! - Copyright ORBIFLY Décembre 2007 - Disclaimer

ORBIFLY MET'MAP TEAM :

Programmation & Développement : Alexandra Zaïnal
Conception & Développement : Baudouin d'Aumeries
Co-Programmation & Développement : Marc-Olivier Méhu
Soutien technique & logistique : Manuel Goepfert

Contact : metmap@orbifly.com




SOURCES & CREDITS :

   NOAA